Time;durP1;ratioP1;P1;durP2;ratioP2;P2;SDS_P1;SDS_P2;PMS_P1;PMS_P2;Temp;Humidity;BMP_temperature;BMP_pressure;BME280_temperature;BME280_humidity;BME280_pressure;Samples;Min_cycle;Max_cycle;Signal;HPM_P1;HPM_P2
2023/07/13 00:00:42;;;;;;;1.97;1.80;;;;;;;20.04;58.88;101075.25;4974523;28;98039;-43
2023/07/13 00:03:08;;;;;;;2.07;1.97;;;;;;;20.04;58.79;101077.28;4972179;28;97119;-51
2023/07/13 00:05:33;;;;;;;3.67;2.30;;;;;;;20.05;58.78;101076.00;4975722;28;97020;-45
2023/07/13 00:07:58;;;;;;;1.73;1.63;;;;;;;20.05;58.75;101078.78;4973683;28;96935;-45
2023/07/13 00:10:24;;;;;;;5.27;2.40;;;;;;;20.04;59.04;101075.25;4975949;28;97830;-43
2023/07/13 00:12:49;;;;;;;3.70;2.37;;;;;;;20.05;58.95;101087.19;4977909;28;97208;-44
2023/07/13 00:15:24;;;;;;;3.67;2.07;;;;;;;20.05;59.10;101081.59;4973023;28;96712;-44
2023/07/13 00:17:50;;;;;;;2.60;2.20;;;;;;;20.01;58.95;101078.38;4973793;28;97238;-44
2023/07/13 00:20:16;;;;;;;6.70;2.73;;;;;;;20.00;59.01;101082.47;4976659;28;97282;-43
2023/07/13 00:22:42;;;;;;;2.40;2.20;;;;;;;19.98;59.13;101107.41;4972265;28;96875;-45
2023/07/13 00:25:10;;;;;;;2.70;1.90;;;;;;;19.95;58.98;101092.50;4974143;28;96783;-45
2023/07/13 00:27:36;;;;;;;2.30;2.20;;;;;;;19.94;58.96;101082.59;4976232;28;97246;-45
2023/07/13 00:30:02;;;;;;;2.30;1.93;;;;;;;19.92;59.19;101084.47;4971304;28;97479;-47
2023/07/13 00:32:29;;;;;;;2.67;2.47;;;;;;;19.89;59.23;101091.13;4974240;28;96765;-44
2023/07/13 00:34:55;;;;;;;2.60;2.40;;;;;;;19.87;59.07;101097.28;4979547;28;97075;-44
2023/07/13 00:37:20;;;;;;;3.77;2.20;;;;;;;19.86;59.18;101095.00;4974608;28;97084;-43
2023/07/13 00:39:45;;;;;;;2.40;2.20;;;;;;;19.87;59.21;101093.72;4972936;28;97056;-44
2023/07/13 00:42:11;;;;;;;2.10;1.80;;;;;;;19.83;59.12;101096.13;4973692;28;97249;-43
2023/07/13 00:44:36;;;;;;;2.20;2.00;;;;;;;19.78;59.23;101102.59;4971671;28;97568;-43
2023/07/13 00:47:02;;;;;;;3.10;2.10;;;;;;;19.78;59.22;101108.94;4974428;28;97268;-46
2023/07/13 00:49:30;;;;;;;3.83;2.10;;;;;;;19.78;59.18;101108.16;4973736;28;97424;-42
2023/07/13 00:52:04;;;;;;;2.30;2.20;;;;;;;19.73;59.30;101101.44;4975193;28;97253;-45
2023/07/13 00:54:44;;;;;;;2.60;2.40;;;;;;;19.70;59.64;101099.00;4970906;28;97140;-44
2023/07/13 00:57:14;;;;;;;2.30;2.20;;;;;;;19.69;59.39;101100.28;4972672;28;97193;-45
2023/07/13 00:59:45;;;;;;;2.17;2.07;;;;;;;19.70;59.10;101096.94;4976813;28;97218;-42
2023/07/13 01:02:10;;;;;;;2.17;2.07;;;;;;;19.66;59.17;101101.38;4973756;28;97578;-45
2023/07/13 01:04:36;;;;;;;2.10;2.00;;;;;;;19.61;59.28;101102.25;4974603;28;96674;-44
2023/07/13 01:07:01;;;;;;;2.37;2.20;;;;;;;19.51;59.09;101118.72;4971215;28;96693;-43
2023/07/13 01:09:27;;;;;;;2.60;2.40;;;;;;;19.52;59.13;101105.50;4974039;28;97295;-43
2023/07/13 01:11:53;;;;;;;2.70;2.10;;;;;;;19.47;59.13;101106.38;4974009;28;97567;-45
2023/07/13 01:14:18;;;;;;;3.40;2.40;;;;;;;19.43;59.32;101101.91;4974065;28;97439;-42
2023/07/13 01:16:49;;;;;;;1.77;1.60;;;;;;;19.40;59.14;101102.22;4973432;28;96964;-43
2023/07/13 01:19:39;;;;;;;2.20;1.60;;;;;;;19.37;59.33;101095.69;4972597;28;98087;-44
2023/07/13 01:22:08;;;;;;;2.90;2.03;;;;;;;19.33;59.18;101091.75;4973849;28;97297;-43
2023/07/13 01:24:36;;;;;;;2.20;2.10;;;;;;;19.29;59.06;101088.50;4971211;28;97016;-45
2023/07/13 01:27:02;;;;;;;2.80;2.30;;;;;;;19.25;59.27;101091.66;4971618;28;97848;-42
2023/07/13 01:29:27;;;;;;;3.20;2.70;;;;;;;19.21;59.42;101088.44;4970163;28;97195;-46
2023/07/13 01:31:53;;;;;;;2.70;1.83;;;;;;;19.18;59.44;101083.19;4970507;28;97209;-45
2023/07/13 01:34:18;;;;;;;3.57;2.10;;;;;;;19.15;59.38;101093.41;4973157;28;96880;-43
2023/07/13 01:36:43;;;;;;;2.53;2.33;;;;;;;19.13;59.40;101087.59;4973948;28;97336;-42
2023/07/13 01:39:09;;;;;;;2.50;2.30;;;;;;;19.09;59.40;101084.41;4973670;28;113732;-44
2023/07/13 01:41:34;;;;;;;2.70;2.50;;;;;;;19.04;59.56;101088.06;4971445;28;107644;-44
2023/07/13 01:43:59;;;;;;;1.83;1.73;;;;;;;19.01;59.51;101083.56;4973811;28;97327;-44
2023/07/13 01:46:25;;;;;;;2.73;1.93;;;;;;;18.98;59.43;101081.84;4972673;28;97347;-43
2023/07/13 01:48:51;;;;;;;2.30;2.00;;;;;;;18.95;59.65;101076.63;4972380;28;100140;-42
2023/07/13 01:51:18;;;;;;;1.83;1.73;;;;;;;18.92;59.59;101083.25;4971782;28;97542;-46
2023/07/13 01:53:43;;;;;;;1.90;1.80;;;;;;;18.90;59.56;101081.03;4974876;28;97496;-44
2023/07/13 01:56:08;;;;;;;3.53;2.13;;;;;;;18.90;59.43;101091.41;4975504;28;97721;-43
2023/07/13 01:58:34;;;;;;;3.73;1.93;;;;;;;18.85;59.78;101087.47;4973720;28;108864;-44
2023/07/13 02:00:59;;;;;;;2.40;2.20;;;;;;;18.83;59.41;101084.47;4972337;28;97438;-45
2023/07/13 02:03:24;;;;;;;2.03;1.93;;;;;;;18.83;59.74;101090.03;4974979;28;97275;-45
2023/07/13 02:05:50;;;;;;;2.40;2.30;;;;;;;18.84;59.42;101091.56;4972208;28;97135;-42
2023/07/13 02:08:15;;;;;;;2.00;1.90;;;;;;;18.82;59.54;101110.84;4972272;28;107574;-44
2023/07/13 02:10:40;;;;;;;2.20;2.00;;;;;;;18.81;59.67;101092.63;4971164;28;100960;-44
2023/07/13 02:13:06;;;;;;;2.77;2.57;;;;;;;18.80;59.57;101090.38;4973236;28;97280;-44
2023/07/13 02:15:32;;;;;;;2.33;2.00;;;;;;;18.75;59.78;101094.78;4971129;28;96843;-46
2023/07/13 02:17:58;;;;;;;2.50;2.40;;;;;;;18.68;59.46;101096.19;4970746;28;97541;-42
2023/07/13 02:20:24;;;;;;;1.97;1.87;;;;;;;18.63;59.56;101096.31;4973595;28;97183;-42
2023/07/13 02:22:49;;;;;;;2.40;1.80;;;;;;;18.62;59.71;101109.50;4973310;28;97073;-43
2023/07/13 02:25:15;;;;;;;2.13;2.03;;;;;;;18.60;59.66;101105.75;4973421;28;97166;-43
2023/07/13 02:27:40;;;;;;;2.00;1.90;;;;;;;18.60;59.54;101111.31;4969492;28;97340;-45
2023/07/13 02:30:07;;;;;;;2.20;2.10;;;;;;;18.59;59.85;101115.38;4970914;28;97292;-43
2023/07/13 02:32:33;;;;;;;1.90;1.80;;;;;;;18.56;59.72;101108.84;4971643;28;97099;-45
2023/07/13 02:34:59;;;;;;;2.60;2.40;;;;;;;18.53;59.59;101109.91;4974294;28;96638;-47
2023/07/13 02:37:24;;;;;;;2.20;2.10;;;;;;;18.49;59.64;101117.84;4973863;28;97464;-43
2023/07/13 02:39:50;;;;;;;2.77;1.90;;;;;;;18.46;59.62;101107.78;4975160;28;97149;-43
2023/07/13 02:42:15;;;;;;;2.33;2.10;;;;;;;18.43;59.72;101114.41;4971674;28;97408;-44
2023/07/13 02:44:40;;;;;;;3.27;2.10;;;;;;;18.40;59.58;101115.47;4972215;28;97076;-45
2023/07/13 02:47:06;;;;;;;2.63;2.27;;;;;;;18.35;59.83;101105.16;4976479;28;97922;-43
2023/07/13 02:49:32;;;;;;;1.80;1.70;;;;;;;18.34;59.75;101106.47;4972406;28;97249;-43
2023/07/13 02:51:57;;;;;;;2.03;1.93;;;;;;;18.34;59.87;101100.91;4972689;28;97453;-44
2023/07/13 02:54:22;;;;;;;2.90;2.70;;;;;;;18.34;59.79;101100.91;4974223;28;96874;-43
2023/07/13 02:56:48;;;;;;;2.30;2.13;;;;;;;18.34;59.86;101100.16;4970884;28;97727;-43
2023/07/13 02:59:13;;;;;;;3.13;2.00;;;;;;;18.32;59.90;101099.94;4970176;28;96954;-44
2023/07/13 03:01:38;;;;;;;2.90;2.63;;;;;;;18.32;59.98;101108.28;4973535;28;97117;-43
2023/07/13 03:04:04;;;;;;;2.17;2.07;;;;;;;18.34;60.04;101114.06;4971564;28;97136;-44
2023/07/13 03:06:31;;;;;;;2.00;1.90;;;;;;;18.32;59.91;101105.50;4970560;28;96741;-44
2023/07/13 03:08:57;;;;;;;2.50;2.20;;;;;;;18.28;59.78;101105.81;4965666;28;98648;-45
2023/07/13 03:11:22;;;;;;;2.40;2.20;;;;;;;18.27;59.87;101107.09;4972139;28;97318;-46
2023/07/13 03:13:48;;;;;;;1.93;1.83;;;;;;;18.26;59.94;101116.72;4977541;28;97192;-43
2023/07/13 03:16:18;;;;;;;2.27;2.10;;;;;;;18.24;59.84;101107.44;4972270;28;96733;-44
2023/07/13 03:18:44;;;;;;;3.23;2.13;;;;;;;18.22;59.81;101109.97;4970490;28;97154;-43
2023/07/13 03:21:09;;;;;;;2.70;2.30;;;;;;;18.20;59.87;101115.34;4969433;28;96544;-46
2023/07/13 03:23:35;;;;;;;1.90;1.80;;;;;;;18.15;59.84;101116.94;4970901;28;97282;-46
2023/07/13 03:26:03;;;;;;;2.60;1.90;;;;;;;18.14;59.92;101120.25;4969639;28;97188;-43
2023/07/13 03:28:28;;;;;;;2.00;1.90;;;;;;;18.12;59.88;101123.59;4969596;28;97163;-44
2023/07/13 03:31:09;;;;;;;2.00;1.90;;;;;;;18.11;60.37;101122.06;4968121;28;97855;-47
2023/07/13 03:33:35;;;;;;;2.30;2.10;;;;;;;18.10;59.90;101130.97;4973272;28;96843;-46
2023/07/13 03:36:02;;;;;;;2.83;2.37;;;;;;;18.10;60.04;101125.41;4972519;28;97932;-44
2023/07/13 03:38:28;;;;;;;2.53;2.33;;;;;;;18.09;59.98;101132.25;4974411;28;98336;-42
2023/07/13 03:40:53;;;;;;;2.40;2.30;;;;;;;18.06;59.91;101128.50;4972531;28;97250;-44
2023/07/13 03:43:20;;;;;;;2.27;2.10;;;;;;;18.05;60.02;101135.34;4974692;28;97101;-46
2023/07/13 03:45:45;;;;;;;2.53;2.30;;;;;;;18.05;60.06;101132.56;4970761;28;97384;-45
2023/07/13 03:48:11;;;;;;;2.60;2.03;;;;;;;18.06;59.89;101124.97;4975346;28;97222;-46
2023/07/13 03:50:36;;;;;;;2.67;2.43;;;;;;;18.05;59.88;101134.59;4971620;28;97027;-43
2023/07/13 03:53:01;;;;;;;2.37;2.17;;;;;;;18.05;60.05;101145.72;4968267;28;98535;-44
2023/07/13 03:55:27;;;;;;;3.47;2.03;;;;;;;18.03;60.15;101137.16;4969792;28;106122;-44
2023/07/13 03:58:01;;;;;;;3.07;2.27;;;;;;;18.05;60.32;101134.59;4973296;28;97703;-44
2023/07/13 04:00:26;;;;;;;1.63;1.53;;;;;;;18.04;60.09;101141.47;4976241;28;97624;-44
2023/07/13 04:02:52;;;;;;;1.90;1.80;;;;;;;18.03;60.07;101137.16;4978829;28;99862;-45
2023/07/13 04:05:17;;;;;;;2.30;2.10;;;;;;;18.04;60.05;101133.09;4972498;28;97488;-43
2023/07/13 04:07:43;;;;;;;3.47;2.00;;;;;;;18.04;60.19;101133.88;4977073;28;97237;-43
2023/07/13 04:10:08;;;;;;;3.40;1.90;;;;;;;18.02;60.04;101133.63;4980383;28;97316;-45
2023/07/13 04:12:34;;;;;;;2.20;1.73;;;;;;;17.99;60.60;101131.91;4978014;28;97198;-44
2023/07/13 04:14:59;;;;;;;2.63;1.83;;;;;;;18.03;60.61;101128.81;4967136;28;97270;-46
2023/07/13 04:17:24;;;;;;;2.50;2.30;;;;;;;18.01;60.37;101140.50;4973329;28;97296;-46
2023/07/13 04:19:50;;;;;;;4.70;2.10;;;;;;;18.01;60.37;101139.72;4972894;28;96991;-43
2023/07/13 04:22:15;;;;;;;2.37;2.20;;;;;;;18.05;60.46;101145.72;4974083;28;97120;-43
2023/07/13 04:24:41;;;;;;;2.27;2.00;;;;;;;18.07;60.51;101143.16;4970835;28;109904;-46
2023/07/13 04:27:07;;;;;;;2.43;2.00;;;;;;;18.11;60.46;101140.84;4976106;28;97200;-43
2023/07/13 04:29:32;;;;;;;2.13;1.90;;;;;;;18.10;60.52;101140.09;4970465;28;96699;-43
2023/07/13 04:31:57;;;;;;;2.27;1.80;;;;;;;18.13;60.60;101147.34;4976281;28;97527;-44
2023/07/13 04:34:23;;;;;;;2.10;1.50;;;;;;;18.16;60.51;101145.53;4974734;28;97385;-42
2023/07/13 04:36:49;;;;;;;2.10;1.90;;;;;;;18.19;60.62;101141.69;4973597;28;97374;-47
2023/07/13 04:39:15;;;;;;;1.50;1.40;;;;;;;18.19;60.38;101145.25;4972445;28;97124;-43
2023/07/13 04:41:40;;;;;;;2.47;2.03;;;;;;;18.18;60.58;101145.75;4973111;28;100905;-43
2023/07/13 04:44:05;;;;;;;2.93;1.53;;;;;;;18.22;60.62;101140.63;4973436;28;104440;-45
2023/07/13 04:46:31;;;;;;;2.03;1.73;;;;;;;18.24;60.65;101143.66;4972492;28;100358;-42
2023/07/13 04:48:57;;;;;;;4.30;1.90;;;;;;;18.24;60.66;101143.66;4968858;28;100533;-42
2023/07/13 04:51:23;;;;;;;1.60;1.50;;;;;;;18.26;60.56;101139.03;4970389;28;97446;-45
2023/07/13 04:53:48;;;;;;;1.57;1.37;;;;;;;18.27;60.75;101139.78;4971237;28;97204;-45
2023/07/13 04:56:13;;;;;;;2.73;1.57;;;;;;;18.28;60.74;101142.00;4970831;28;97129;-43
2023/07/13 04:58:40;;;;;;;3.77;1.57;;;;;;;18.30;60.94;101144.28;4973015;28;97600;-44
2023/07/13 05:01:06;;;;;;;1.43;1.30;;;;;;;18.31;61.00;101148.56;4971636;28;97104;-44
2023/07/13 05:03:32;;;;;;;1.80;1.70;;;;;;;18.31;60.90;101145.78;4972093;28;97609;-44
2023/07/13 05:06:01;;;;;;;2.60;1.70;;;;;;;18.38;60.98;101156.28;4972098;28;97218;-44
2023/07/13 05:08:26;;;;;;;1.40;1.30;;;;;;;18.39;61.09;101152.22;4971595;28;96975;-43
2023/07/13 05:10:52;;;;;;;2.13;1.53;;;;;;;18.41;61.04;101158.03;4972718;28;96756;-45
2023/07/13 05:13:17;;;;;;;1.50;1.40;;;;;;;18.45;61.20;101164.81;4972803;28;97353;-43
2023/07/13 05:15:43;;;;;;;3.30;1.50;;;;;;;18.48;61.12;101160.94;4975128;28;97080;-43
2023/07/13 05:18:08;;;;;;;1.93;1.50;;;;;;;18.50;60.86;101161.13;4971779;28;96778;-43
2023/07/13 05:20:34;;;;;;;2.83;1.50;;;;;;;18.55;61.06;101167.91;4972843;28;97196;-42
2023/07/13 05:22:59;;;;;;;2.83;1.50;;;;;;;18.58;61.17;101169.63;4972438;28;97342;-46
2023/07/13 05:25:24;;;;;;;3.07;1.20;;;;;;;18.61;61.09;101166.50;4970421;28;97875;-43
2023/07/13 05:27:50;;;;;;;2.93;1.67;;;;;;;18.66;61.14;101174.03;4970560;28;97135;-43
2023/07/13 05:30:15;;;;;;;1.80;1.47;;;;;;;18.71;60.96;101169.63;4973363;28;97120;-43
2023/07/13 05:32:41;;;;;;;1.53;1.30;;;;;;;18.77;61.44;101170.25;4974970;28;97414;-45
2023/07/13 05:35:06;;;;;;;3.07;1.70;;;;;;;18.83;61.00;101165.31;4975733;28;96714;-46
2023/07/13 05:37:32;;;;;;;1.53;1.10;;;;;;;18.94;61.06;101173.47;4973907;28;97291;-44
2023/07/13 05:39:57;;;;;;;10.43;1.60;;;;;;;19.02;60.93;101157.59;4971755;28;97311;-43
2023/07/13 05:42:22;;;;;;;3.60;1.53;;;;;;;19.13;60.68;101174.06;4974252;28;97534;-42
2023/07/13 05:44:48;;;;;;;3.77;1.80;;;;;;;19.24;60.32;101173.09;4973287;28;99531;-44
2023/07/13 05:47:14;;;;;;;6.93;1.53;;;;;;;19.32;60.56;101171.91;4973001;28;97075;-43
2023/07/13 05:49:40;;;;;;;1.83;1.33;;;;;;;19.38;60.28;101174.56;4973025;28;97405;-46
2023/07/13 05:52:05;;;;;;;2.83;1.73;;;;;;;19.47;60.26;101174.13;4974265;28;97073;-44
2023/07/13 05:54:31;;;;;;;3.37;1.57;;;;;;;19.58;60.23;101175.91;4973338;28;97011;-43
2023/07/13 05:56:56;;;;;;;2.23;1.37;;;;;;;19.60;60.07;101176.88;4974159;28;97180;-45
2023/07/13 05:59:22;;;;;;;4.17;1.73;;;;;;;19.72;59.81;101183.72;4972013;28;98102;-48
2023/07/13 06:01:47;;;;;;;3.37;1.90;;;;;;;19.81;59.90;101183.22;4972420;28;97697;-44
2023/07/13 06:04:12;;;;;;;10.97;1.70;;;;;;;19.90;59.66;101184.78;4971387;28;97279;-44
2023/07/13 06:06:38;;;;;;;4.27;1.77;;;;;;;19.99;59.82;101182.28;4972251;28;97046;-42
2023/07/13 06:09:03;;;;;;;2.40;1.70;;;;;;;20.04;59.47;101181.41;4971316;28;98123;-43
2023/07/13 06:11:29;;;;;;;3.67;1.73;;;;;;;20.12;59.21;101193.38;4973084;28;97283;-43
2023/07/13 06:13:55;;;;;;;2.13;1.50;;;;;;;20.16;59.16;101184.63;4970937;28;97164;-44
2023/07/13 06:16:21;;;;;;;4.37;1.30;;;;;;;20.24;59.26;101190.34;4972034;28;97567;-44
2023/07/13 06:18:47;;;;;;;2.63;1.50;;;;;;;20.31;59.20;101198.78;4971672;28;96797;-44
2023/07/13 06:21:17;;;;;;;3.03;1.33;;;;;;;20.37;59.18;101185.41;4971727;28;97128;-43
2023/07/13 06:23:43;;;;;;;1.30;1.17;;;;;;;20.39;59.05;101191.19;4975003;28;97227;-43
2023/07/13 06:26:09;;;;;;;2.27;1.17;;;;;;;20.46;58.77;101198.91;4971704;28;97281;-43
2023/07/13 06:28:36;;;;;;;2.60;1.33;;;;;;;20.55;58.54;101201.19;4973626;28;97118;-43
2023/07/13 06:31:04;;;;;;;4.27;1.80;;;;;;;20.61;58.72;101201.03;4968208;28;97387;-44
2023/07/13 06:33:29;;;;;;;1.43;1.30;;;;;;;20.64;58.72;101202.75;4972578;28;97019;-46
2023/07/13 06:35:55;;;;;;;3.37;1.40;;;;;;;20.71;58.48;101202.78;4969649;28;97248;-43
2023/07/13 06:38:20;;;;;;;4.30;1.40;;;;;;;20.76;58.26;101213.06;4970895;28;98106;-43
2023/07/13 06:40:46;;;;;;;2.40;1.47;;;;;;;20.83;58.09;101209.59;4974265;28;96665;-46
2023/07/13 06:43:11;;;;;;;2.23;1.07;;;;;;;20.85;58.03;101209.78;4972570;28;97241;-43
2023/07/13 06:45:42;;;;;;;1.97;1.20;;;;;;;20.91;57.58;101201.22;4973363;28;98247;-44
2023/07/13 06:48:07;;;;;;;3.50;1.20;;;;;;;20.90;57.40;101208.13;4970425;28;96930;-45
2023/07/13 06:50:33;;;;;;;2.57;1.10;;;;;;;20.93;57.28;101210.56;4970621;28;97303;-44
2023/07/13 06:52:59;;;;;;;2.53;1.40;;;;;;;20.93;57.08;101215.41;4970850;28;97066;-43
2023/07/13 06:55:25;;;;;;;3.27;1.20;;;;;;;20.99;57.01;101216.00;4975063;28;101010;-44
2023/07/13 06:57:50;;;;;;;2.00;1.27;;;;;;;21.09;57.07;101227.47;4969388;28;96877;-43
2023/07/13 07:00:15;;;;;;;3.07;1.33;;;;;;;21.16;56.74;101218.34;4970384;28;97141;-45
2023/07/13 07:02:41;;;;;;;1.60;1.30;;;;;;;21.25;56.72;101220.63;4970938;28;96619;-43
2023/07/13 07:05:06;;;;;;;3.00;1.13;;;;;;;21.32;56.25;101231.09;4970292;28;97478;-44
2023/07/13 07:07:32;;;;;;;1.80;1.30;;;;;;;21.39;56.25;101224.78;4972924;28;96979;-46
2023/07/13 07:09:57;;;;;;;2.00;1.00;;;;;;;21.46;55.87;101224.06;4971388;28;97287;-45
2023/07/13 07:12:22;;;;;;;1.67;0.80;;;;;;;21.52;55.69;101225.41;4970753;28;97468;-44
2023/07/13 07:14:48;;;;;;;2.90;1.00;;;;;;;21.60;55.58;101220.56;4974119;28;97472;-43
2023/07/13 07:17:13;;;;;;;2.37;1.00;;;;;;;21.72;55.69;101223.78;4971343;28;97869;-43
2023/07/13 07:19:38;;;;;;;2.73;1.10;;;;;;;21.82;55.55;101224.00;4970721;28;106212;-44
2023/07/13 07:22:04;;;;;;;2.40;1.27;;;;;;;21.88;55.09;101228.16;4970322;28;96508;-45
2023/07/13 07:24:29;;;;;;;2.33;1.30;;;;;;;21.88;54.93;101239.34;4971831;28;96929;-44
2023/07/13 07:26:54;;;;;;;1.63;1.10;;;;;;;21.85;54.70;101234.09;4971363;28;97300;-42
2023/07/13 07:29:20;;;;;;;3.33;1.43;;;;;;;21.85;54.84;101234.84;4969929;28;101583;-44
2023/07/13 07:31:45;;;;;;;1.67;1.10;;;;;;;21.96;54.69;101231.69;4971917;28;97258;-42
2023/07/13 07:34:11;;;;;;;2.50;1.17;;;;;;;22.02;54.63;101234.31;4973590;28;97351;-43
2023/07/13 07:36:36;;;;;;;2.60;1.00;;;;;;;22.03;54.28;101244.97;4969131;28;96689;-45
2023/07/13 07:39:01;;;;;;;1.43;1.07;;;;;;;22.03;54.44;101233.00;4971850;28;97172;-44
2023/07/13 07:41:27;;;;;;;2.47;1.20;;;;;;;22.09;54.23;101239.94;4970213;28;96725;-43
2023/07/13 07:43:52;;;;;;;2.33;1.40;;;;;;;22.20;54.19;101239.56;4971453;28;97153;-44
2023/07/13 07:46:17;;;;;;;2.80;1.03;;;;;;;22.36;53.85;101229.88;4969626;28;97194;-43
2023/07/13 07:48:43;;;;;;;2.20;1.20;;;;;;;22.42;53.69;101234.53;4965710;28;109056;-46
2023/07/13 07:51:08;;;;;;;2.50;1.50;;;;;;;22.45;53.60;101231.34;4972124;28;97099;-43
2023/07/13 07:53:33;;;;;;;2.30;1.00;;;;;;;22.51;53.61;101236.75;4969067;28;97321;-44
2023/07/13 07:55:58;;;;;;;2.70;1.37;;;;;;;22.54;53.21;101232.84;4970380;28;97210;-43
2023/07/13 07:58:24;;;;;;;3.03;1.27;;;;;;;22.61;53.35;101232.09;4974839;28;97910;-42
2023/07/13 08:00:49;;;;;;;1.73;1.03;;;;;;;22.73;53.36;101239.59;4969694;28;96767;-46
2023/07/13 08:03:14;;;;;;;2.90;1.20;;;;;;;22.79;53.04;101236.56;4971519;28;98091;-43
2023/07/13 08:05:40;;;;;;;4.00;1.50;;;;;;;22.79;52.76;101236.56;4971915;28;97400;-43
2023/07/13 08:08:05;;;;;;;3.27;1.20;;;;;;;22.80;52.96;101232.47;4968555;28;109591;-44
2023/07/13 08:10:30;;;;;;;3.40;1.40;;;;;;;22.83;52.83;101237.69;4971173;28;97478;-44
2023/07/13 08:12:56;;;;;;;2.20;1.00;;;;;;;22.86;52.92;101233.00;4969963;28;96709;-45
2023/07/13 08:15:22;;;;;;;3.10;1.33;;;;;;;22.86;52.49;101233.00;4970047;28;97056;-46
2023/07/13 08:17:48;;;;;;;1.40;1.10;;;;;;;22.94;52.57;101234.47;4970819;28;97573;-45
2023/07/13 08:20:14;;;;;;;5.03;1.50;;;;;;;22.98;52.51;101231.28;4971746;28;98609;-44
2023/07/13 08:22:39;;;;;;;2.77;1.30;;;;;;;23.06;52.50;101240.44;4972393;28;97242;-43
2023/07/13 08:25:05;;;;;;;3.77;1.33;;;;;;;23.23;52.10;101239.81;4976924;28;96857;-45
2023/07/13 08:27:31;;;;;;;2.50;1.50;;;;;;;23.31;51.94;101240.53;4973854;28;97766;-46
2023/07/13 08:29:56;;;;;;;3.50;1.50;;;;;;;23.30;51.85;101242.59;4975146;28;96815;-45
2023/07/13 08:32:23;;;;;;;5.60;1.37;;;;;;;23.22;51.61;101239.06;4974128;28;97433;-43
2023/07/13 08:34:48;;;;;;;2.20;1.00;;;;;;;23.14;51.71;101246.78;4974111;28;97024;-43
2023/07/13 08:37:14;;;;;;;1.50;1.00;;;;;;;23.13;51.80;101248.06;4970151;28;97719;-46
2023/07/13 08:39:39;;;;;;;4.70;1.47;;;;;;;23.08;51.72;101249.03;4974964;28;97347;-45
2023/07/13 08:42:11;;;;;;;3.67;1.60;;;;;;;23.13;51.52;101246.00;4973968;28;96888;-46
2023/07/13 08:44:56;;;;;;;2.70;1.20;;;;;;;23.09;51.16;101253.31;4973039;28;96914;-44
2023/07/13 08:47:24;;;;;;;3.33;1.00;;;;;;;23.04;51.85;101246.59;4975535;28;98293;-43
2023/07/13 08:49:50;;;;;;;2.80;1.53;;;;;;;22.98;51.82;101253.72;4973953;28;97102;-46
2023/07/13 08:52:38;;;;;;;3.53;1.53;;;;;;;23.02;51.20;101251.31;4972307;28;97431;-46
2023/07/13 08:55:28;;;;;;;2.33;1.20;;;;;;;23.18;50.89;101240.75;4976104;28;96784;-45
2023/07/13 08:58:00;;;;;;;2.73;1.20;;;;;;;23.32;51.33;101228.75;4975225;28;97951;-44
2023/07/13 09:00:36;;;;;;;1.53;1.03;;;;;;;23.47;50.61;101230.75;4974046;28;96760;-44
2023/07/13 09:03:02;;;;;;;2.80;1.20;;;;;;;23.63;51.21;101230.09;4974604;28;97476;-46
2023/07/13 09:05:40;;;;;;;3.43;1.30;;;;;;;23.70;50.16;101232.13;4971898;28;97112;-46
2023/07/13 09:08:33;;;;;;;5.53;1.10;;;;;;;23.87;49.96;101231.47;4971877;28;97921;-46
2023/07/13 09:11:16;;;;;;;2.90;1.03;;;;;;;24.02;49.30;101233.44;4972316;28;97245;-43
2023/07/13 09:13:57;;;;;;;2.20;1.00;;;;;;;24.20;49.20;101232.22;4972595;28;96829;-43
2023/07/13 09:16:24;;;;;;;2.00;1.27;;;;;;;24.41;49.72;101236.16;4972199;28;97012;-43
2023/07/13 09:18:54;;;;;;;3.73;1.40;;;;;;;24.43;49.37;101244.75;4971872;28;97501;-44
2023/07/13 09:21:28;;;;;;;1.27;1.00;;;;;;;24.35;49.25;101232.09;4970725;28;97407;-46
2023/07/13 09:23:56;;;;;;;2.43;1.10;;;;;;;24.41;49.55;101241.03;4973455;28;97316;-43
2023/07/13 09:26:24;;;;;;;1.77;1.10;;;;;;;24.56;49.49;101235.25;4972590;28;97401;-43
2023/07/13 09:29:03;;;;;;;3.33;1.40;;;;;;;24.72;47.90;101242.25;4980176;28;97656;-45
2023/07/13 09:31:41;;;;;;;2.80;1.50;;;;;;;24.60;47.43;101252.47;4969694;28;97082;-46
2023/07/13 09:34:10;;;;;;;1.40;1.00;;;;;;;24.55;48.81;101242.94;4973323;28;96854;-46
2023/07/13 09:36:35;;;;;;;3.47;1.33;;;;;;;24.65;49.09;101242.31;4972904;28;97475;-44
2023/07/13 09:39:27;;;;;;;3.03;1.20;;;;;;;24.77;47.07;101237.72;4971094;28;97383;-44
2023/07/13 09:42:10;;;;;;;3.17;1.23;;;;;;;24.80;47.51;101230.94;4972577;28;97361;-44
2023/07/13 09:44:38;;;;;;;2.90;1.20;;;;;;;24.81;48.41;101230.38;4972273;28;97087;-44
2023/07/13 09:47:16;;;;;;;2.27;1.30;;;;;;;24.74;47.75;101236.03;4973814;28;97233;-45
2023/07/13 09:49:43;;;;;;;2.17;0.90;;;;;;;24.89;48.57;101236.66;4970647;28;98085;-45
2023/07/13 09:52:13;;;;;;;2.17;1.13;;;;;;;25.03;47.56;101245.53;4973354;28;96715;-45
2023/07/13 09:54:39;;;;;;;3.43;1.20;;;;;;;25.13;47.16;101243.53;4971921;28;97394;-44
2023/07/13 09:57:17;;;;;;;1.40;0.83;;;;;;;24.97;45.72;101248.56;4972280;28;97015;-44
2023/07/13 09:59:48;;;;;;;1.33;1.00;;;;;;;24.80;46.80;101248.56;4969911;28;97380;-44
2023/07/13 10:02:33;;;;;;;2.60;1.10;;;;;;;24.83;45.83;101241.03;4972355;28;97197;-46
2023/07/13 10:05:04;;;;;;;3.47;1.17;;;;;;;25.03;46.90;101254.69;4977819;28;96884;-45
2023/07/13 10:07:30;;;;;;;1.97;1.17;;;;;;;25.30;47.19;101235.06;4970122;28;96719;-46
2023/07/13 10:10:02;;;;;;;2.03;1.00;;;;;;;25.54;45.59;101244.72;4972693;28;100413;-44
2023/07/13 10:12:30;;;;;;;2.27;0.90;;;;;;;25.59;46.10;101240.91;4974121;28;97421;-46
2023/07/13 10:14:58;;;;;;;1.43;1.23;;;;;;;25.55;45.80;101237.78;4969431;28;96939;-43
2023/07/13 10:17:31;;;;;;;1.73;1.10;;;;;;;25.37;45.38;101236.28;4974511;28;97569;-43
2023/07/13 10:20:10;;;;;;;2.03;1.20;;;;;;;25.23;45.49;101242.25;4972408;28;97114;-44
2023/07/13 10:22:58;;;;;;;1.80;0.87;;;;;;;25.13;45.38;101249.16;4974380;28;97270;-44
2023/07/13 10:25:28;;;;;;;1.30;0.97;;;;;;;25.08;46.15;101247.31;4971316;28;97205;-45
2023/07/13 10:28:02;;;;;;;1.83;0.90;;;;;;;25.04;45.70;101256.19;4974512;28;96986;-45
2023/07/13 10:30:32;;;;;;;1.10;0.93;;;;;;;24.94;46.11;101246.94;4971790;28;96830;-43
2023/07/13 10:33:03;;;;;;;2.57;1.30;;;;;;;24.92;45.70;101254.47;4973269;28;97458;-43
2023/07/13 10:35:31;;;;;;;1.57;1.00;;;;;;;24.87;45.91;101249.81;4970718;28;97400;-44
2023/07/13 10:38:07;;;;;;;1.20;1.10;;;;;;;24.88;45.67;101254.13;4969888;28;97329;-45
2023/07/13 10:40:56;;;;;;;3.30;1.10;;;;;;;24.86;45.81;101251.88;4970735;28;96891;-44
2023/07/13 10:43:27;;;;;;;1.10;0.87;;;;;;;24.85;45.77;101249.66;4974263;28;97268;-43
2023/07/13 10:45:54;;;;;;;3.93;1.33;;;;;;;25.02;46.06;101258.84;4971242;28;97359;-44
2023/07/13 10:48:22;;;;;;;2.60;1.20;;;;;;;25.29;45.55;101254.03;4973573;28;97096;-44
2023/07/13 10:50:50;;;;;;;1.20;0.70;;;;;;;25.41;45.09;101247.88;4971287;28;98228;-44
2023/07/13 10:53:20;;;;;;;1.83;1.00;;;;;;;25.42;45.10;101246.56;4972332;28;96945;-43
2023/07/13 10:55:48;;;;;;;1.63;1.30;;;;;;;25.35;45.10;101261.47;4972724;28;97126;-44
2023/07/13 10:58:27;;;;;;;1.10;0.90;;;;;;;25.22;45.05;101259.75;4973046;28;97068;-44
2023/07/13 11:01:02;;;;;;;2.50;0.90;;;;;;;25.15;45.04;101260.59;4970247;28;97119;-45
2023/07/13 11:03:29;;;;;;;1.30;1.10;;;;;;;25.15;45.18;101264.16;4976237;28;97303;-43
2023/07/13 11:06:15;;;;;;;2.30;1.20;;;;;;;25.27;44.64;101267.22;4971361;28;97391;-43
2023/07/13 11:08:43;;;;;;;1.50;0.90;;;;;;;25.47;44.24;101268.13;4970787;28;96691;-43
2023/07/13 11:11:34;;;;;;;1.10;1.00;;;;;;;25.49;43.06;101265.47;4972895;28;100554;-43
2023/07/13 11:14:24;;;;;;;1.30;0.90;;;;;;;25.45;44.31;101268.69;4970728;28;97101;-46
2023/07/13 11:16:49;;;;;;;1.00;0.90;;;;;;;25.38;44.34;101258.22;4969854;28;97340;-47
2023/07/13 11:19:14;;;;;;;2.40;1.50;;;;;;;25.30;44.35;101263.22;4971457;28;97180;-43
2023/07/13 11:22:04;;;;;;;2.00;0.90;;;;;;;25.31;43.26;101261.91;4971907;28;96729;-43
2023/07/13 11:25:01;;;;;;;0.83;0.63;;;;;;;25.25;43.37;101259.31;4968585;28;97365;-46
2023/07/13 11:27:42;;;;;;;2.17;0.97;;;;;;;25.26;43.10;101260.84;4970390;28;96732;-45